sensor_id;sensor_type;location;lat;lon;timestamp;P1;durP1;ratioP1;P2;durP2;ratioP2
85332;SDS011;75747;53.652;10.168;2024-03-02T00:00:10;21.40;;;12.00;;
85332;SDS011;75747;53.652;10.168;2024-03-02T00:02:42;25.30;;;11.87;;
85332;SDS011;75747;53.652;10.168;2024-03-02T00:05:19;21.80;;;11.70;;
85332;SDS011;75747;53.652;10.168;2024-03-02T00:07:47;25.60;;;11.50;;
85332;SDS011;75747;53.652;10.168;2024-03-02T00:10:19;23.77;;;12.07;;
85332;SDS011;75747;53.652;10.168;2024-03-02T00:12:51;22.57;;;11.33;;
85332;SDS011;75747;53.652;10.168;2024-03-02T00:18:10;23.33;;;11.97;;
85332;SDS011;75747;53.652;10.168;2024-03-02T00:20:37;21.40;;;11.13;;
85332;SDS011;75747;53.652;10.168;2024-03-02T00:23:04;24.33;;;13.07;;
85332;SDS011;75747;53.652;10.168;2024-03-02T00:25:41;24.03;;;12.27;;
85332;SDS011;75747;53.652;10.168;2024-03-02T00:28:13;25.30;;;11.97;;
85332;SDS011;75747;53.652;10.168;2024-03-02T00:33:17;26.73;;;13.80;;
85332;SDS011;75747;53.652;10.168;2024-03-02T00:35:46;21.23;;;12.03;;
85332;SDS011;75747;53.652;10.168;2024-03-02T00:38:12;20.57;;;11.87;;
85332;SDS011;75747;53.652;10.168;2024-03-02T00:40:40;25.43;;;12.33;;
85332;SDS011;75747;53.652;10.168;2024-03-02T00:43:36;18.30;;;10.90;;
85332;SDS011;75747;53.652;10.168;2024-03-02T00:46:17;18.37;;;10.90;;
85332;SDS011;75747;53.652;10.168;2024-03-02T00:48:54;25.07;;;12.27;;
85332;SDS011;75747;53.652;10.168;2024-03-02T00:51:26;28.23;;;14.43;;
85332;SDS011;75747;53.652;10.168;2024-03-02T00:53:55;22.93;;;12.13;;
85332;SDS011;75747;53.652;10.168;2024-03-02T00:56:23;20.27;;;10.37;;
85332;SDS011;75747;53.652;10.168;2024-03-02T00:58:50;24.60;;;11.70;;
85332;SDS011;75747;53.652;10.168;2024-03-02T01:01:16;21.37;;;11.07;;
85332;SDS011;75747;53.652;10.168;2024-03-02T01:03:42;23.97;;;11.70;;
85332;SDS011;75747;53.652;10.168;2024-03-02T01:06:08;26.87;;;14.43;;
85332;SDS011;75747;53.652;10.168;2024-03-02T01:08:34;24.17;;;11.40;;
85332;SDS011;75747;53.652;10.168;2024-03-02T01:11:01;24.80;;;13.33;;
85332;SDS011;75747;53.652;10.168;2024-03-02T01:13:27;24.63;;;12.13;;
85332;SDS011;75747;53.652;10.168;2024-03-02T01:15:52;28.57;;;13.67;;
85332;SDS011;75747;53.652;10.168;2024-03-02T01:18:18;23.00;;;12.23;;
85332;SDS011;75747;53.652;10.168;2024-03-02T01:20:44;26.97;;;12.87;;
85332;SDS011;75747;53.652;10.168;2024-03-02T01:23:10;25.27;;;14.23;;
85332;SDS011;75747;53.652;10.168;2024-03-02T01:25:36;31.60;;;13.60;;
85332;SDS011;75747;53.652;10.168;2024-03-02T01:28:02;28.93;;;14.87;;
85332;SDS011;75747;53.652;10.168;2024-03-02T01:30:28;25.10;;;11.40;;
85332;SDS011;75747;53.652;10.168;2024-03-02T01:32:53;25.23;;;12.50;;
85332;SDS011;75747;53.652;10.168;2024-03-02T01:35:19;23.50;;;12.07;;
85332;SDS011;75747;53.652;10.168;2024-03-02T01:37:44;25.80;;;11.83;;
85332;SDS011;75747;53.652;10.168;2024-03-02T01:40:10;19.17;;;10.67;;
85332;SDS011;75747;53.652;10.168;2024-03-02T01:42:36;21.30;;;11.07;;
85332;SDS011;75747;53.652;10.168;2024-03-02T01:45:06;23.77;;;12.53;;
85332;SDS011;75747;53.652;10.168;2024-03-02T01:47:32;29.67;;;14.30;;
85332;SDS011;75747;53.652;10.168;2024-03-02T01:49:58;26.77;;;12.47;;
85332;SDS011;75747;53.652;10.168;2024-03-02T01:52:25;21.70;;;11.40;;
85332;SDS011;75747;53.652;10.168;2024-03-02T01:54:51;21.27;;;11.27;;
85332;SDS011;75747;53.652;10.168;2024-03-02T01:57:17;22.53;;;11.97;;
85332;SDS011;75747;53.652;10.168;2024-03-02T01:59:43;27.17;;;13.43;;
85332;SDS011;75747;53.652;10.168;2024-03-02T02:02:10;24.93;;;12.37;;
85332;SDS011;75747;53.652;10.168;2024-03-02T02:04:35;22.37;;;11.80;;
85332;SDS011;75747;53.652;10.168;2024-03-02T02:07:01;20.33;;;11.70;;
85332;SDS011;75747;53.652;10.168;2024-03-02T02:09:27;18.97;;;9.57;;
85332;SDS011;75747;53.652;10.168;2024-03-02T02:11:52;20.40;;;11.80;;
85332;SDS011;75747;53.652;10.168;2024-03-02T02:14:18;25.43;;;12.70;;
85332;SDS011;75747;53.652;10.168;2024-03-02T02:16:44;24.50;;;12.93;;
85332;SDS011;75747;53.652;10.168;2024-03-02T02:19:09;30.63;;;13.70;;
85332;SDS011;75747;53.652;10.168;2024-03-02T02:21:35;26.80;;;13.60;;
85332;SDS011;75747;53.652;10.168;2024-03-02T02:24:01;27.77;;;13.07;;
85332;SDS011;75747;53.652;10.168;2024-03-02T02:26:28;20.73;;;9.43;;
85332;SDS011;75747;53.652;10.168;2024-03-02T02:28:54;20.23;;;10.20;;
85332;SDS011;75747;53.652;10.168;2024-03-02T02:31:20;29.70;;;13.53;;
85332;SDS011;75747;53.652;10.168;2024-03-02T02:33:46;23.37;;;12.20;;
85332;SDS011;75747;53.652;10.168;2024-03-02T02:36:11;23.83;;;12.13;;
85332;SDS011;75747;53.652;10.168;2024-03-02T02:38:42;18.47;;;10.43;;
85332;SDS011;75747;53.652;10.168;2024-03-02T02:41:11;28.70;;;13.77;;
85332;SDS011;75747;53.652;10.168;2024-03-02T02:43:37;25.93;;;12.23;;
85332;SDS011;75747;53.652;10.168;2024-03-02T02:46:04;23.77;;;12.23;;
85332;SDS011;75747;53.652;10.168;2024-03-02T02:48:30;21.83;;;11.00;;
85332;SDS011;75747;53.652;10.168;2024-03-02T02:50:56;20.53;;;10.27;;
85332;SDS011;75747;53.652;10.168;2024-03-02T02:53:21;21.10;;;10.67;;
85332;SDS011;75747;53.652;10.168;2024-03-02T02:55:47;25.90;;;12.37;;
85332;SDS011;75747;53.652;10.168;2024-03-02T02:58:13;28.00;;;13.57;;
85332;SDS011;75747;53.652;10.168;2024-03-02T03:00:39;27.73;;;14.03;;
85332;SDS011;75747;53.652;10.168;2024-03-02T03:03:05;28.17;;;13.43;;
85332;SDS011;75747;53.652;10.168;2024-03-02T03:05:31;23.97;;;12.57;;
85332;SDS011;75747;53.652;10.168;2024-03-02T03:07:57;29.20;;;12.83;;
85332;SDS011;75747;53.652;10.168;2024-03-02T03:10:22;23.47;;;12.80;;
85332;SDS011;75747;53.652;10.168;2024-03-02T03:12:50;24.33;;;14.53;;
85332;SDS011;75747;53.652;10.168;2024-03-02T03:15:16;25.63;;;12.47;;
85332;SDS011;75747;53.652;10.168;2024-03-02T03:17:42;30.90;;;13.50;;
85332;SDS011;75747;53.652;10.168;2024-03-02T03:20:08;24.37;;;12.77;;
85332;SDS011;75747;53.652;10.168;2024-03-02T03:22:40;21.73;;;11.90;;
85332;SDS011;75747;53.652;10.168;2024-03-02T03:25:06;21.63;;;10.93;;
85332;SDS011;75747;53.652;10.168;2024-03-02T03:27:34;21.20;;;11.77;;
85332;SDS011;75747;53.652;10.168;2024-03-02T03:30:00;25.67;;;13.47;;
85332;SDS011;75747;53.652;10.168;2024-03-02T03:32:27;24.73;;;11.40;;
85332;SDS011;75747;53.652;10.168;2024-03-02T03:34:53;20.70;;;11.17;;
85332;SDS011;75747;53.652;10.168;2024-03-02T03:37:19;22.70;;;12.00;;
85332;SDS011;75747;53.652;10.168;2024-03-02T03:39:44;22.23;;;11.63;;
85332;SDS011;75747;53.652;10.168;2024-03-02T03:42:10;18.73;;;10.97;;
85332;SDS011;75747;53.652;10.168;2024-03-02T03:44:36;20.47;;;11.40;;
85332;SDS011;75747;53.652;10.168;2024-03-02T03:47:02;20.30;;;10.33;;
85332;SDS011;75747;53.652;10.168;2024-03-02T03:49:27;18.20;;;10.87;;
85332;SDS011;75747;53.652;10.168;2024-03-02T03:51:53;21.40;;;11.30;;
85332;SDS011;75747;53.652;10.168;2024-03-02T03:54:19;18.83;;;10.80;;
85332;SDS011;75747;53.652;10.168;2024-03-02T03:56:44;29.77;;;12.23;;
85332;SDS011;75747;53.652;10.168;2024-03-02T03:59:10;16.27;;;9.23;;
85332;SDS011;75747;53.652;10.168;2024-03-02T04:01:36;18.40;;;10.00;;
85332;SDS011;75747;53.652;10.168;2024-03-02T04:04:02;19.87;;;11.37;;
85332;SDS011;75747;53.652;10.168;2024-03-02T04:06:28;18.33;;;11.67;;
85332;SDS011;75747;53.652;10.168;2024-03-02T04:08:54;24.13;;;12.37;;
85332;SDS011;75747;53.652;10.168;2024-03-02T04:11:20;19.77;;;11.50;;
85332;SDS011;75747;53.652;10.168;2024-03-02T04:13:46;26.87;;;13.50;;
85332;SDS011;75747;53.652;10.168;2024-03-02T04:16:11;24.17;;;13.07;;
85332;SDS011;75747;53.652;10.168;2024-03-02T04:18:37;27.13;;;12.47;;
85332;SDS011;75747;53.652;10.168;2024-03-02T04:21:04;20.40;;;9.83;;
85332;SDS011;75747;53.652;10.168;2024-03-02T04:23:30;25.97;;;12.20;;
85332;SDS011;75747;53.652;10.168;2024-03-02T04:25:56;21.80;;;11.03;;
85332;SDS011;75747;53.652;10.168;2024-03-02T04:28:21;16.70;;;10.50;;
85332;SDS011;75747;53.652;10.168;2024-03-02T04:30:47;21.30;;;10.80;;
85332;SDS011;75747;53.652;10.168;2024-03-02T04:33:13;20.83;;;11.03;;
85332;SDS011;75747;53.652;10.168;2024-03-02T04:35:38;21.70;;;10.53;;
85332;SDS011;75747;53.652;10.168;2024-03-02T04:38:04;17.73;;;10.07;;
85332;SDS011;75747;53.652;10.168;2024-03-02T04:40:30;20.47;;;11.30;;
85332;SDS011;75747;53.652;10.168;2024-03-02T04:42:55;17.17;;;9.53;;
85332;SDS011;75747;53.652;10.168;2024-03-02T04:45:21;20.17;;;10.77;;
85332;SDS011;75747;53.652;10.168;2024-03-02T04:47:48;19.23;;;10.90;;
85332;SDS011;75747;53.652;10.168;2024-03-02T04:50:14;24.43;;;11.37;;
85332;SDS011;75747;53.652;10.168;2024-03-02T04:52:40;20.13;;;10.77;;
85332;SDS011;75747;53.652;10.168;2024-03-02T04:55:05;24.63;;;12.10;;
85332;SDS011;75747;53.652;10.168;2024-03-02T04:57:54;25.23;;;11.33;;
85332;SDS011;75747;53.652;10.168;2024-03-02T05:00:21;19.77;;;9.03;;
85332;SDS011;75747;53.652;10.168;2024-03-02T05:02:46;19.13;;;10.20;;
85332;SDS011;75747;53.652;10.168;2024-03-02T05:05:12;20.10;;;11.70;;
85332;SDS011;75747;53.652;10.168;2024-03-02T05:07:40;18.03;;;9.90;;
85332;SDS011;75747;53.652;10.168;2024-03-02T05:10:07;19.83;;;11.10;;
85332;SDS011;75747;53.652;10.168;2024-03-02T05:12:33;15.73;;;9.90;;
85332;SDS011;75747;53.652;10.168;2024-03-02T05:15:08;20.83;;;9.87;;
85332;SDS011;75747;53.652;10.168;2024-03-02T05:17:41;22.00;;;11.73;;
85332;SDS011;75747;53.652;10.168;2024-03-02T05:20:10;20.10;;;11.03;;
85332;SDS011;75747;53.652;10.168;2024-03-02T05:22:36;19.00;;;10.07;;
85332;SDS011;75747;53.652;10.168;2024-03-02T05:25:02;22.40;;;12.20;;
85332;SDS011;75747;53.652;10.168;2024-03-02T05:27:29;21.17;;;11.80;;
85332;SDS011;75747;53.652;10.168;2024-03-02T05:29:56;25.60;;;12.50;;
85332;SDS011;75747;53.652;10.168;2024-03-02T05:32:23;17.50;;;10.13;;
85332;SDS011;75747;53.652;10.168;2024-03-02T05:34:48;17.63;;;9.70;;
85332;SDS011;75747;53.652;10.168;2024-03-02T05:37:15;16.43;;;8.93;;
85332;SDS011;75747;53.652;10.168;2024-03-02T05:39:41;24.73;;;12.03;;
85332;SDS011;75747;53.652;10.168;2024-03-02T05:42:08;20.13;;;10.67;;
85332;SDS011;75747;53.652;10.168;2024-03-02T05:44:34;20.50;;;11.17;;
85332;SDS011;75747;53.652;10.168;2024-03-02T05:47:01;20.87;;;10.63;;
85332;SDS011;75747;53.652;10.168;2024-03-02T05:49:27;19.67;;;10.70;;
85332;SDS011;75747;53.652;10.168;2024-03-02T05:51:52;16.17;;;10.37;;
85332;SDS011;75747;53.652;10.168;2024-03-02T05:54:18;24.63;;;12.73;;
85332;SDS011;75747;53.652;10.168;2024-03-02T05:56:44;24.43;;;12.00;;
85332;SDS011;75747;53.652;10.168;2024-03-02T05:59:09;24.13;;;10.30;;
85332;SDS011;75747;53.652;10.168;2024-03-02T06:01:47;24.40;;;12.33;;
85332;SDS011;75747;53.652;10.168;2024-03-02T06:04:15;20.87;;;10.80;;
85332;SDS011;75747;53.652;10.168;2024-03-02T06:06:41;25.20;;;11.37;;
85332;SDS011;75747;53.652;10.168;2024-03-02T06:09:07;18.77;;;11.43;;
85332;SDS011;75747;53.652;10.168;2024-03-02T06:11:33;19.67;;;11.50;;
85332;SDS011;75747;53.652;10.168;2024-03-02T06:14:00;20.30;;;10.83;;
85332;SDS011;75747;53.652;10.168;2024-03-02T06:16:26;23.90;;;11.50;;
85332;SDS011;75747;53.652;10.168;2024-03-02T06:18:51;23.63;;;11.17;;
85332;SDS011;75747;53.652;10.168;2024-03-02T06:21:19;24.93;;;11.27;;
85332;SDS011;75747;53.652;10.168;2024-03-02T06:23:45;15.47;;;9.20;;
85332;SDS011;75747;53.652;10.168;2024-03-02T06:26:11;18.13;;;10.83;;
85332;SDS011;75747;53.652;10.168;2024-03-02T06:28:37;20.93;;;10.80;;
85332;SDS011;75747;53.652;10.168;2024-03-02T06:31:03;22.30;;;10.90;;
85332;SDS011;75747;53.652;10.168;2024-03-02T06:33:29;19.17;;;10.30;;
85332;SDS011;75747;53.652;10.168;2024-03-02T06:35:55;16.20;;;9.53;;
85332;SDS011;75747;53.652;10.168;2024-03-02T06:38:20;21.63;;;11.40;;
85332;SDS011;75747;53.652;10.168;2024-03-02T06:40:46;27.43;;;10.47;;
85332;SDS011;75747;53.652;10.168;2024-03-02T06:43:11;16.63;;;9.43;;
85332;SDS011;75747;53.652;10.168;2024-03-02T06:45:37;16.37;;;9.70;;
85332;SDS011;75747;53.652;10.168;2024-03-02T06:48:03;20.00;;;10.60;;
85332;SDS011;75747;53.652;10.168;2024-03-02T06:50:29;19.90;;;11.33;;
85332;SDS011;75747;53.652;10.168;2024-03-02T06:52:54;21.60;;;11.90;;
85332;SDS011;75747;53.652;10.168;2024-03-02T06:55:23;20.87;;;10.10;;
85332;SDS011;75747;53.652;10.168;2024-03-02T06:57:49;24.43;;;11.47;;
85332;SDS011;75747;53.652;10.168;2024-03-02T07:00:15;24.13;;;12.77;;
85332;SDS011;75747;53.652;10.168;2024-03-02T07:02:43;19.00;;;10.87;;
85332;SDS011;75747;53.652;10.168;2024-03-02T07:05:09;18.13;;;11.13;;
85332;SDS011;75747;53.652;10.168;2024-03-02T07:07:36;24.30;;;11.77;;
85332;SDS011;75747;53.652;10.168;2024-03-02T07:10:02;20.90;;;12.67;;
85332;SDS011;75747;53.652;10.168;2024-03-02T07:12:29;22.53;;;10.53;;
85332;SDS011;75747;53.652;10.168;2024-03-02T07:14:56;20.73;;;9.93;;
85332;SDS011;75747;53.652;10.168;2024-03-02T07:17:27;22.77;;;13.00;;
85332;SDS011;75747;53.652;10.168;2024-03-02T07:19:53;26.87;;;10.80;;
85332;SDS011;75747;53.652;10.168;2024-03-02T07:22:18;17.90;;;9.70;;
85332;SDS011;75747;53.652;10.168;2024-03-02T07:24:44;18.23;;;10.57;;
85332;SDS011;75747;53.652;10.168;2024-03-02T07:27:13;24.67;;;12.57;;
85332;SDS011;75747;53.652;10.168;2024-03-02T07:29:39;23.73;;;11.03;;
85332;SDS011;75747;53.652;10.168;2024-03-02T07:32:05;24.17;;;12.93;;
85332;SDS011;75747;53.652;10.168;2024-03-02T07:34:32;13.20;;;8.57;;
85332;SDS011;75747;53.652;10.168;2024-03-02T07:36:58;22.23;;;10.53;;
85332;SDS011;75747;53.652;10.168;2024-03-02T07:39:24;21.63;;;11.17;;
85332;SDS011;75747;53.652;10.168;2024-03-02T07:41:50;17.83;;;10.43;;
85332;SDS011;75747;53.652;10.168;2024-03-02T07:44:16;19.87;;;10.90;;
85332;SDS011;75747;53.652;10.168;2024-03-02T07:46:43;19.43;;;10.23;;
85332;SDS011;75747;53.652;10.168;2024-03-02T07:49:11;15.63;;;9.10;;
85332;SDS011;75747;53.652;10.168;2024-03-02T07:51:38;17.77;;;11.03;;
85332;SDS011;75747;53.652;10.168;2024-03-02T07:54:04;21.20;;;11.47;;
85332;SDS011;75747;53.652;10.168;2024-03-02T07:56:30;18.87;;;11.30;;
85332;SDS011;75747;53.652;10.168;2024-03-02T07:58:56;19.43;;;10.77;;
85332;SDS011;75747;53.652;10.168;2024-03-02T08:01:25;13.43;;;8.77;;
85332;SDS011;75747;53.652;10.168;2024-03-02T08:03:55;18.67;;;10.80;;
85332;SDS011;75747;53.652;10.168;2024-03-02T08:06:25;21.67;;;11.67;;
85332;SDS011;75747;53.652;10.168;2024-03-02T08:08:53;19.00;;;9.50;;
85332;SDS011;75747;53.652;10.168;2024-03-02T08:11:22;26.93;;;13.00;;
85332;SDS011;75747;53.652;10.168;2024-03-02T08:13:48;27.50;;;10.73;;
85332;SDS011;75747;53.652;10.168;2024-03-02T08:16:14;18.60;;;10.00;;
85332;SDS011;75747;53.652;10.168;2024-03-02T08:18:40;21.67;;;10.30;;
85332;SDS011;75747;53.652;10.168;2024-03-02T08:21:07;18.23;;;9.90;;
85332;SDS011;75747;53.652;10.168;2024-03-02T08:23:33;16.50;;;9.83;;
85332;SDS011;75747;53.652;10.168;2024-03-02T08:26:00;19.17;;;10.13;;
85332;SDS011;75747;53.652;10.168;2024-03-02T08:28:26;17.97;;;11.67;;
85332;SDS011;75747;53.652;10.168;2024-03-02T08:30:52;15.53;;;9.00;;
85332;SDS011;75747;53.652;10.168;2024-03-02T08:33:17;14.83;;;8.97;;
85332;SDS011;75747;53.652;10.168;2024-03-02T08:35:43;20.47;;;11.90;;
85332;SDS011;75747;53.652;10.168;2024-03-02T08:38:09;21.10;;;11.37;;
85332;SDS011;75747;53.652;10.168;2024-03-02T08:40:34;20.87;;;12.50;;
85332;SDS011;75747;53.652;10.168;2024-03-02T08:43:00;17.00;;;9.73;;
85332;SDS011;75747;53.652;10.168;2024-03-02T08:45:26;16.17;;;9.50;;
85332;SDS011;75747;53.652;10.168;2024-03-02T08:47:51;18.43;;;9.87;;
85332;SDS011;75747;53.652;10.168;2024-03-02T08:50:17;15.87;;;10.73;;
85332;SDS011;75747;53.652;10.168;2024-03-02T08:52:43;18.93;;;9.83;;
85332;SDS011;75747;53.652;10.168;2024-03-02T08:55:09;12.30;;;8.07;;
85332;SDS011;75747;53.652;10.168;2024-03-02T08:57:36;15.27;;;7.83;;
85332;SDS011;75747;53.652;10.168;2024-03-02T09:00:02;15.67;;;10.07;;
85332;SDS011;75747;53.652;10.168;2024-03-02T09:02:30;16.40;;;9.07;;
85332;SDS011;75747;53.652;10.168;2024-03-02T09:04:56;18.40;;;10.33;;
85332;SDS011;75747;53.652;10.168;2024-03-02T09:07:21;17.30;;;9.07;;
85332;SDS011;75747;53.652;10.168;2024-03-02T09:09:47;14.40;;;9.07;;
85332;SDS011;75747;53.652;10.168;2024-03-02T09:12:13;16.47;;;9.67;;
85332;SDS011;75747;53.652;10.168;2024-03-02T09:14:39;15.20;;;8.87;;
85332;SDS011;75747;53.652;10.168;2024-03-02T09:17:05;12.30;;;8.23;;
85332;SDS011;75747;53.652;10.168;2024-03-02T09:19:31;14.97;;;8.30;;
85332;SDS011;75747;53.652;10.168;2024-03-02T09:21:56;17.43;;;9.53;;
85332;SDS011;75747;53.652;10.168;2024-03-02T09:24:23;15.47;;;10.20;;
85332;SDS011;75747;53.652;10.168;2024-03-02T09:26:49;14.23;;;7.93;;
85332;SDS011;75747;53.652;10.168;2024-03-02T09:29:15;16.67;;;9.47;;
85332;SDS011;75747;53.652;10.168;2024-03-02T09:31:41;17.63;;;10.53;;
85332;SDS011;75747;53.652;10.168;2024-03-02T09:34:07;19.53;;;9.80;;
85332;SDS011;75747;53.652;10.168;2024-03-02T09:36:33;14.10;;;8.70;;
85332;SDS011;75747;53.652;10.168;2024-03-02T09:38:59;16.63;;;9.00;;
85332;SDS011;75747;53.652;10.168;2024-03-02T09:41:24;17.07;;;8.87;;
85332;SDS011;75747;53.652;10.168;2024-03-02T09:43:50;13.67;;;8.60;;
85332;SDS011;75747;53.652;10.168;2024-03-02T09:46:16;14.23;;;8.90;;
85332;SDS011;75747;53.652;10.168;2024-03-02T09:48:43;18.67;;;10.30;;
85332;SDS011;75747;53.652;10.168;2024-03-02T09:51:09;10.70;;;7.40;;
85332;SDS011;75747;53.652;10.168;2024-03-02T09:53:36;14.70;;;9.30;;
85332;SDS011;75747;53.652;10.168;2024-03-02T09:56:02;15.10;;;8.10;;
85332;SDS011;75747;53.652;10.168;2024-03-02T09:58:29;12.87;;;7.93;;
85332;SDS011;75747;53.652;10.168;2024-03-02T10:00:55;14.27;;;8.43;;
85332;SDS011;75747;53.652;10.168;2024-03-02T10:03:22;13.80;;;9.00;;
85332;SDS011;75747;53.652;10.168;2024-03-02T10:05:51;12.13;;;7.37;;
85332;SDS011;75747;53.652;10.168;2024-03-02T10:08:17;12.30;;;7.40;;
85332;SDS011;75747;53.652;10.168;2024-03-02T10:10:42;15.80;;;9.27;;
85332;SDS011;75747;53.652;10.168;2024-03-02T10:13:09;15.10;;;8.63;;
85332;SDS011;75747;53.652;10.168;2024-03-02T10:15:39;16.43;;;9.23;;
85332;SDS011;75747;53.652;10.168;2024-03-02T10:18:09;14.90;;;8.80;;
85332;SDS011;75747;53.652;10.168;2024-03-02T10:20:36;12.47;;;7.30;;
85332;SDS011;75747;53.652;10.168;2024-03-02T10:23:09;11.03;;;6.37;;
85332;SDS011;75747;53.652;10.168;2024-03-02T10:25:42;9.80;;;6.80;;
85332;SDS011;75747;53.652;10.168;2024-03-02T10:28:08;11.93;;;8.10;;
85332;SDS011;75747;53.652;10.168;2024-03-02T10:30:34;14.13;;;7.70;;
85332;SDS011;75747;53.652;10.168;2024-03-02T10:33:05;13.90;;;7.50;;
85332;SDS011;75747;53.652;10.168;2024-03-02T10:35:31;14.20;;;8.03;;
85332;SDS011;75747;53.652;10.168;2024-03-02T10:38:01;13.03;;;7.70;;
85332;SDS011;75747;53.652;10.168;2024-03-02T10:40:30;11.37;;;7.50;;
85332;SDS011;75747;53.652;10.168;2024-03-02T10:42:56;14.93;;;8.80;;
85332;SDS011;75747;53.652;10.168;2024-03-02T10:45:23;15.70;;;8.83;;
85332;SDS011;75747;53.652;10.168;2024-03-02T10:47:50;13.30;;;8.07;;
85332;SDS011;75747;53.652;10.168;2024-03-02T10:50:16;12.90;;;7.43;;
85332;SDS011;75747;53.652;10.168;2024-03-02T10:52:42;12.67;;;7.33;;
85332;SDS011;75747;53.652;10.168;2024-03-02T10:55:08;16.40;;;8.97;;
85332;SDS011;75747;53.652;10.168;2024-03-02T10:57:42;13.27;;;7.73;;
85332;SDS011;75747;53.652;10.168;2024-03-02T11:00:21;13.57;;;7.63;;
85332;SDS011;75747;53.652;10.168;2024-03-02T11:03:12;12.30;;;7.67;;
85332;SDS011;75747;53.652;10.168;2024-03-02T11:05:40;11.87;;;7.27;;
85332;SDS011;75747;53.652;10.168;2024-03-02T11:08:12;15.83;;;8.90;;
85332;SDS011;75747;53.652;10.168;2024-03-02T11:10:44;15.37;;;9.13;;
85332;SDS011;75747;53.652;10.168;2024-03-02T11:13:32;16.20;;;8.10;;
85332;SDS011;75747;53.652;10.168;2024-03-02T11:16:12;19.57;;;9.00;;
85332;SDS011;75747;53.652;10.168;2024-03-02T11:19:06;12.60;;;7.63;;
85332;SDS011;75747;53.652;10.168;2024-03-02T11:21:40;15.73;;;9.80;;
85332;SDS011;75747;53.652;10.168;2024-03-02T11:26:49;14.03;;;8.33;;
85332;SDS011;75747;53.652;10.168;2024-03-02T11:32:04;11.83;;;7.77;;
85332;SDS011;75747;53.652;10.168;2024-03-02T11:34:34;14.13;;;8.30;;
85332;SDS011;75747;53.652;10.168;2024-03-02T11:37:01;11.80;;;7.27;;
85332;SDS011;75747;53.652;10.168;2024-03-02T11:39:29;15.67;;;7.83;;
85332;SDS011;75747;53.652;10.168;2024-03-02T11:41:55;13.33;;;7.33;;
85332;SDS011;75747;53.652;10.168;2024-03-02T11:44:22;11.00;;;7.27;;
85332;SDS011;75747;53.652;10.168;2024-03-02T11:46:52;10.33;;;7.40;;
85332;SDS011;75747;53.652;10.168;2024-03-02T11:52:10;10.17;;;6.70;;
85332;SDS011;75747;53.652;10.168;2024-03-02T11:54:42;9.67;;;6.43;;
85332;SDS011;75747;53.652;10.168;2024-03-02T11:57:13;11.57;;;7.57;;
85332;SDS011;75747;53.652;10.168;2024-03-02T11:59:48;13.67;;;7.40;;
85332;SDS011;75747;53.652;10.168;2024-03-02T12:02:21;9.03;;;6.00;;
85332;SDS011;75747;53.652;10.168;2024-03-02T12:04:47;11.37;;;6.90;;
85332;SDS011;75747;53.652;10.168;2024-03-02T12:07:21;13.43;;;8.07;;
85332;SDS011;75747;53.652;10.168;2024-03-02T12:09:47;12.67;;;7.67;;
85332;SDS011;75747;53.652;10.168;2024-03-02T12:12:13;10.70;;;7.07;;
85332;SDS011;75747;53.652;10.168;2024-03-02T12:14:49;11.43;;;6.77;;
85332;SDS011;75747;53.652;10.168;2024-03-02T12:17:16;14.33;;;7.60;;
85332;SDS011;75747;53.652;10.168;2024-03-02T12:19:42;10.87;;;6.67;;
85332;SDS011;75747;53.652;10.168;2024-03-02T12:22:08;10.43;;;7.33;;
85332;SDS011;75747;53.652;10.168;2024-03-02T12:24:33;13.50;;;8.43;;
85332;SDS011;75747;53.652;10.168;2024-03-02T12:26:59;11.73;;;6.97;;
85332;SDS011;75747;53.652;10.168;2024-03-02T12:29:25;12.10;;;8.00;;
85332;SDS011;75747;53.652;10.168;2024-03-02T12:31:51;14.77;;;7.33;;
85332;SDS011;75747;53.652;10.168;2024-03-02T12:34:18;13.80;;;7.60;;
85332;SDS011;75747;53.652;10.168;2024-03-02T12:36:45;13.03;;;7.70;;
85332;SDS011;75747;53.652;10.168;2024-03-02T12:39:14;10.83;;;7.20;;
85332;SDS011;75747;53.652;10.168;2024-03-02T12:41:43;9.30;;;6.13;;
85332;SDS011;75747;53.652;10.168;2024-03-02T12:44:09;9.83;;;5.67;;
85332;SDS011;75747;53.652;10.168;2024-03-02T12:46:35;8.17;;;5.50;;
85332;SDS011;75747;53.652;10.168;2024-03-02T12:49:11;9.80;;;5.73;;
85332;SDS011;75747;53.652;10.168;2024-03-02T12:51:38;10.87;;;6.33;;
85332;SDS011;75747;53.652;10.168;2024-03-02T12:54:10;12.50;;;7.30;;
85332;SDS011;75747;53.652;10.168;2024-03-02T12:56:36;10.57;;;6.43;;
85332;SDS011;75747;53.652;10.168;2024-03-02T12:59:03;9.83;;;6.00;;
85332;SDS011;75747;53.652;10.168;2024-03-02T13:01:29;11.73;;;7.17;;
85332;SDS011;75747;53.652;10.168;2024-03-02T13:03:57;9.60;;;6.00;;
85332;SDS011;75747;53.652;10.168;2024-03-02T13:06:24;11.93;;;6.10;;
85332;SDS011;75747;53.652;10.168;2024-03-02T13:08:54;11.97;;;6.97;;
85332;SDS011;75747;53.652;10.168;2024-03-02T13:11:20;12.13;;;6.17;;
85332;SDS011;75747;53.652;10.168;2024-03-02T13:13:48;9.93;;;6.50;;
85332;SDS011;75747;53.652;10.168;2024-03-02T13:16:14;8.40;;;5.80;;
85332;SDS011;75747;53.652;10.168;2024-03-02T13:18:41;9.30;;;6.67;;
85332;SDS011;75747;53.652;10.168;2024-03-02T13:21:07;10.50;;;5.87;;
85332;SDS011;75747;53.652;10.168;2024-03-02T13:23:34;8.60;;;6.10;;
85332;SDS011;75747;53.652;10.168;2024-03-02T13:26:00;10.17;;;6.87;;
85332;SDS011;75747;53.652;10.168;2024-03-02T13:28:26;8.40;;;5.77;;
85332;SDS011;75747;53.652;10.168;2024-03-02T13:30:52;10.33;;;6.43;;
85332;SDS011;75747;53.652;10.168;2024-03-02T13:33:17;11.77;;;6.57;;
85332;SDS011;75747;53.652;10.168;2024-03-02T13:35:47;8.93;;;6.77;;
85332;SDS011;75747;53.652;10.168;2024-03-02T13:38:17;12.33;;;6.70;;
85332;SDS011;75747;53.652;10.168;2024-03-02T13:40:44;9.83;;;6.10;;
85332;SDS011;75747;53.652;10.168;2024-03-02T13:43:10;10.33;;;6.73;;
85332;SDS011;75747;53.652;10.168;2024-03-02T13:45:37;9.17;;;5.77;;
85332;SDS011;75747;53.652;10.168;2024-03-02T13:48:03;8.63;;;6.00;;
85332;SDS011;75747;53.652;10.168;2024-03-02T13:50:29;9.20;;;6.47;;
85332;SDS011;75747;53.652;10.168;2024-03-02T13:52:55;12.97;;;7.00;;
85332;SDS011;75747;53.652;10.168;2024-03-02T13:55:21;9.03;;;6.63;;
85332;SDS011;75747;53.652;10.168;2024-03-02T13:57:46;8.87;;;6.00;;
85332;SDS011;75747;53.652;10.168;2024-03-02T14:00:13;9.03;;;5.87;;
85332;SDS011;75747;53.652;10.168;2024-03-02T14:02:40;12.27;;;7.00;;
85332;SDS011;75747;53.652;10.168;2024-03-02T14:05:06;10.60;;;6.40;;
85332;SDS011;75747;53.652;10.168;2024-03-02T14:07:36;9.73;;;5.47;;
85332;SDS011;75747;53.652;10.168;2024-03-02T14:10:03;10.10;;;6.63;;
85332;SDS011;75747;53.652;10.168;2024-03-02T14:12:29;12.90;;;7.33;;
85332;SDS011;75747;53.652;10.168;2024-03-02T14:14:55;8.53;;;6.20;;
85332;SDS011;75747;53.652;10.168;2024-03-02T14:17:23;11.70;;;6.40;;
85332;SDS011;75747;53.652;10.168;2024-03-02T14:19:50;8.13;;;5.90;;
85332;SDS011;75747;53.652;10.168;2024-03-02T14:22:16;11.13;;;6.50;;
85332;SDS011;75747;53.652;10.168;2024-03-02T14:24:42;11.40;;;6.53;;
85332;SDS011;75747;53.652;10.168;2024-03-02T14:27:09;11.57;;;6.30;;
85332;SDS011;75747;53.652;10.168;2024-03-02T14:29:34;12.97;;;6.17;;